sensor_id;sensor_type;location;lat;lon;timestamp;P1;durP1;ratioP1;P2;durP2;ratioP2
69910;SDS011;63555;49.920;17.868;2023-08-01T00:01:32;6.37;;;1.50;;
69910;SDS011;63555;49.920;17.868;2023-08-01T00:06:32;4.30;;;1.60;;
69910;SDS011;63555;49.920;17.868;2023-08-01T00:11:33;4.70;;;1.50;;
69910;SDS011;63555;49.920;17.868;2023-08-01T00:16:33;4.33;;;1.40;;
69910;SDS011;63555;49.920;17.868;2023-08-01T00:21:34;4.07;;;1.50;;
69910;SDS011;63555;49.920;17.868;2023-08-01T00:26:35;4.63;;;2.10;;
69910;SDS011;63555;49.920;17.868;2023-08-01T00:31:35;5.43;;;1.50;;
69910;SDS011;63555;49.920;17.868;2023-08-01T00:36:36;5.83;;;1.83;;
69910;SDS011;63555;49.920;17.868;2023-08-01T00:41:36;6.93;;;1.40;;
69910;SDS011;63555;49.920;17.868;2023-08-01T00:46:37;4.53;;;1.43;;
69910;SDS011;63555;49.920;17.868;2023-08-01T00:51:37;3.83;;;1.07;;
69910;SDS011;63555;49.920;17.868;2023-08-01T00:56:37;7.37;;;1.13;;
69910;SDS011;63555;49.920;17.868;2023-08-01T01:01:38;2.47;;;1.00;;
69910;SDS011;63555;49.920;17.868;2023-08-01T01:06:41;4.00;;;1.20;;
69910;SDS011;63555;49.920;17.868;2023-08-01T01:11:47;2.70;;;1.10;;
69910;SDS011;63555;49.920;17.868;2023-08-01T01:16:48;4.30;;;1.33;;
69910;SDS011;63555;49.920;17.868;2023-08-01T01:22:00;4.40;;;1.10;;
69910;SDS011;63555;49.920;17.868;2023-08-01T01:27:03;4.55;;;1.23;;
69910;SDS011;63555;49.920;17.868;2023-08-01T01:32:05;4.75;;;1.13;;
69910;SDS011;63555;49.920;17.868;2023-08-01T01:37:06;3.00;;;1.47;;
69910;SDS011;63555;49.920;17.868;2023-08-01T01:42:06;3.20;;;1.20;;
69910;SDS011;63555;49.920;17.868;2023-08-01T01:47:07;4.90;;;1.30;;
69910;SDS011;63555;49.920;17.868;2023-08-01T01:52:07;6.90;;;1.40;;
69910;SDS011;63555;49.920;17.868;2023-08-01T01:57:08;4.10;;;1.20;;
69910;SDS011;63555;49.920;17.868;2023-08-01T02:02:08;4.80;;;1.47;;
69910;SDS011;63555;49.920;17.868;2023-08-01T02:07:08;4.90;;;1.53;;
69910;SDS011;63555;49.920;17.868;2023-08-01T02:12:09;7.37;;;1.50;;
69910;SDS011;63555;49.920;17.868;2023-08-01T02:17:10;4.73;;;1.53;;
69910;SDS011;63555;49.920;17.868;2023-08-01T02:22:10;4.43;;;1.30;;
69910;SDS011;63555;49.920;17.868;2023-08-01T02:27:11;3.37;;;1.47;;
69910;SDS011;63555;49.920;17.868;2023-08-01T02:32:11;5.00;;;1.40;;
69910;SDS011;63555;49.920;17.868;2023-08-01T02:37:11;4.07;;;1.40;;
69910;SDS011;63555;49.920;17.868;2023-08-01T02:42:12;5.90;;;1.57;;
69910;SDS011;63555;49.920;17.868;2023-08-01T02:47:12;4.37;;;1.20;;
69910;SDS011;63555;49.920;17.868;2023-08-01T02:52:12;4.97;;;1.53;;
69910;SDS011;63555;49.920;17.868;2023-08-01T02:57:13;4.17;;;1.70;;
69910;SDS011;63555;49.920;17.868;2023-08-01T03:02:13;3.60;;;1.40;;
69910;SDS011;63555;49.920;17.868;2023-08-01T03:07:13;4.37;;;1.70;;
69910;SDS011;63555;49.920;17.868;2023-08-01T03:12:14;8.07;;;1.60;;
69910;SDS011;63555;49.920;17.868;2023-08-01T03:17:14;6.78;;;1.80;;
69910;SDS011;63555;49.920;17.868;2023-08-01T03:22:15;3.90;;;1.33;;
69910;SDS011;63555;49.920;17.868;2023-08-01T03:27:16;4.47;;;1.60;;
69910;SDS011;63555;49.920;17.868;2023-08-01T03:32:17;4.03;;;1.50;;
69910;SDS011;63555;49.920;17.868;2023-08-01T03:37:17;6.57;;;2.17;;
69910;SDS011;63555;49.920;17.868;2023-08-01T03:42:18;3.67;;;1.70;;
69910;SDS011;63555;49.920;17.868;2023-08-01T03:47:18;6.00;;;1.60;;
69910;SDS011;63555;49.920;17.868;2023-08-01T03:52:18;3.73;;;1.90;;
69910;SDS011;63555;49.920;17.868;2023-08-01T03:57:19;5.07;;;1.77;;
69910;SDS011;63555;49.920;17.868;2023-08-01T04:02:19;5.83;;;1.53;;
69910;SDS011;63555;49.920;17.868;2023-08-01T04:07:20;5.93;;;1.83;;
69910;SDS011;63555;49.920;17.868;2023-08-01T04:12:20;5.27;;;1.83;;
69910;SDS011;63555;49.920;17.868;2023-08-01T04:17:20;4.30;;;1.80;;
69910;SDS011;63555;49.920;17.868;2023-08-01T04:22:21;3.63;;;1.93;;
69910;SDS011;63555;49.920;17.868;2023-08-01T04:27:21;4.70;;;1.80;;
69910;SDS011;63555;49.920;17.868;2023-08-01T04:32:21;3.90;;;1.63;;
69910;SDS011;63555;49.920;17.868;2023-08-01T04:37:22;9.10;;;1.87;;
69910;SDS011;63555;49.920;17.868;2023-08-01T04:42:23;4.38;;;1.70;;
69910;SDS011;63555;49.920;17.868;2023-08-01T04:47:23;4.03;;;1.48;;
69910;SDS011;63555;49.920;17.868;2023-08-01T04:52:24;5.10;;;1.70;;
69910;SDS011;63555;49.920;17.868;2023-08-01T04:57:24;5.53;;;1.60;;
69910;SDS011;63555;49.920;17.868;2023-08-01T05:02:24;4.33;;;1.70;;
69910;SDS011;63555;49.920;17.868;2023-08-01T05:07:25;4.43;;;1.63;;
69910;SDS011;63555;49.920;17.868;2023-08-01T05:12:25;4.50;;;1.70;;
69910;SDS011;63555;49.920;17.868;2023-08-01T05:17:26;6.53;;;2.60;;
69910;SDS011;63555;49.920;17.868;2023-08-01T05:22:26;8.93;;;2.77;;
69910;SDS011;63555;49.920;17.868;2023-08-01T05:27:27;7.00;;;1.90;;
69910;SDS011;63555;49.920;17.868;2023-08-01T05:32:27;5.90;;;1.50;;
69910;SDS011;63555;49.920;17.868;2023-08-01T05:37:28;4.37;;;1.63;;
69910;SDS011;63555;49.920;17.868;2023-08-01T05:42:28;3.60;;;1.80;;
69910;SDS011;63555;49.920;17.868;2023-08-01T05:47:28;6.73;;;2.20;;
69910;SDS011;63555;49.920;17.868;2023-08-01T05:52:29;4.18;;;2.00;;
69910;SDS011;63555;49.920;17.868;2023-08-01T05:57:30;3.70;;;1.58;;
69910;SDS011;63555;49.920;17.868;2023-08-01T06:02:30;4.03;;;1.87;;
69910;SDS011;63555;49.920;17.868;2023-08-01T06:07:31;4.27;;;2.07;;
69910;SDS011;63555;49.920;17.868;2023-08-01T06:12:31;6.07;;;2.17;;
69910;SDS011;63555;49.920;17.868;2023-08-01T06:17:32;5.27;;;2.07;;
69910;SDS011;63555;49.920;17.868;2023-08-01T06:22:32;5.23;;;1.77;;
69910;SDS011;63555;49.920;17.868;2023-08-01T06:27:32;4.27;;;1.90;;
69910;SDS011;63555;49.920;17.868;2023-08-01T06:32:33;4.27;;;1.77;;
69910;SDS011;63555;49.920;17.868;2023-08-01T06:37:33;4.40;;;1.90;;
69910;SDS011;63555;49.920;17.868;2023-08-01T06:42:34;5.65;;;1.90;;
69910;SDS011;63555;49.920;17.868;2023-08-01T06:47:34;4.45;;;1.70;;
69910;SDS011;63555;49.920;17.868;2023-08-01T06:52:34;4.03;;;1.93;;
69910;SDS011;63555;49.920;17.868;2023-08-01T06:57:35;6.25;;;2.05;;
69910;SDS011;63555;49.920;17.868;2023-08-01T07:02:35;5.27;;;2.17;;
69910;SDS011;63555;49.920;17.868;2023-08-01T07:07:35;5.40;;;2.00;;
69910;SDS011;63555;49.920;17.868;2023-08-01T07:12:36;5.13;;;1.90;;
69910;SDS011;63555;49.920;17.868;2023-08-01T07:17:36;4.85;;;1.80;;
69910;SDS011;63555;49.920;17.868;2023-08-01T07:22:37;4.87;;;1.90;;
69910;SDS011;63555;49.920;17.868;2023-08-01T07:27:37;4.57;;;2.17;;
69910;SDS011;63555;49.920;17.868;2023-08-01T07:32:37;5.07;;;2.20;;
69910;SDS011;63555;49.920;17.868;2023-08-01T07:37:38;4.67;;;2.30;;
69910;SDS011;63555;49.920;17.868;2023-08-01T07:42:38;4.57;;;2.00;;
69910;SDS011;63555;49.920;17.868;2023-08-01T07:47:40;7.03;;;2.20;;
69910;SDS011;63555;49.920;17.868;2023-08-01T07:52:41;3.58;;;2.05;;
69910;SDS011;63555;49.920;17.868;2023-08-01T07:57:41;5.90;;;1.97;;
69910;SDS011;63555;49.920;17.868;2023-08-01T08:02:42;4.50;;;1.67;;
69910;SDS011;63555;49.920;17.868;2023-08-01T08:07:43;4.97;;;2.00;;
69910;SDS011;63555;49.920;17.868;2023-08-01T08:12:44;7.00;;;2.30;;
69910;SDS011;63555;49.920;17.868;2023-08-01T08:17:44;3.73;;;1.93;;
69910;SDS011;63555;49.920;17.868;2023-08-01T08:22:44;4.03;;;1.90;;
69910;SDS011;63555;49.920;17.868;2023-08-01T08:27:45;3.17;;;1.63;;
69910;SDS011;63555;49.920;17.868;2023-08-01T08:32:48;3.72;;;1.95;;
69910;SDS011;63555;49.920;17.868;2023-08-01T08:37:48;5.00;;;2.07;;
69910;SDS011;63555;49.920;17.868;2023-08-01T08:42:49;4.03;;;2.00;;
69910;SDS011;63555;49.920;17.868;2023-08-01T08:47:55;6.57;;;2.15;;
69910;SDS011;63555;49.920;17.868;2023-08-01T08:52:58;4.87;;;2.10;;
69910;SDS011;63555;49.920;17.868;2023-08-01T08:58:00;4.60;;;2.38;;
69910;SDS011;63555;49.920;17.868;2023-08-01T09:03:01;4.73;;;2.40;;
69910;SDS011;63555;49.920;17.868;2023-08-01T09:08:01;4.33;;;2.27;;
69910;SDS011;63555;49.920;17.868;2023-08-01T09:13:07;4.68;;;2.17;;
69910;SDS011;63555;49.920;17.868;2023-08-01T09:18:08;7.10;;;2.55;;
69910;SDS011;63555;49.920;17.868;2023-08-01T09:23:09;6.47;;;2.60;;
69910;SDS011;63555;49.920;17.868;2023-08-01T09:28:23;5.90;;;2.80;;
69910;SDS011;63555;49.920;17.868;2023-08-01T09:33:24;6.10;;;2.90;;
69910;SDS011;63555;49.920;17.868;2023-08-01T09:38:25;9.30;;;3.90;;
69910;SDS011;63555;49.920;17.868;2023-08-01T09:43:33;6.13;;;2.80;;
69910;SDS011;63555;49.920;17.868;2023-08-01T09:48:35;5.40;;;2.80;;
69910;SDS011;63555;49.920;17.868;2023-08-01T09:53:45;5.50;;;2.23;;
69910;SDS011;63555;49.920;17.868;2023-08-01T09:58:49;5.53;;;2.20;;
69910;SDS011;63555;49.920;17.868;2023-08-01T10:03:51;6.47;;;2.63;;
69910;SDS011;63555;49.920;17.868;2023-08-01T10:08:52;4.40;;;2.10;;
69910;SDS011;63555;49.920;17.868;2023-08-01T10:13:53;7.05;;;2.35;;
69910;SDS011;63555;49.920;17.868;2023-08-01T10:18:53;4.63;;;2.15;;
69910;SDS011;63555;49.920;17.868;2023-08-01T10:23:54;4.70;;;2.30;;
69910;SDS011;63555;49.920;17.868;2023-08-01T10:28:56;4.53;;;1.90;;
69910;SDS011;63555;49.920;17.868;2023-08-01T10:34:05;4.93;;;1.90;;
69910;SDS011;63555;49.920;17.868;2023-08-01T10:39:07;4.82;;;2.10;;
69910;SDS011;63555;49.920;17.868;2023-08-01T10:44:08;8.17;;;2.60;;
69910;SDS011;63555;49.920;17.868;2023-08-01T10:49:12;5.22;;;2.60;;
69910;SDS011;63555;49.920;17.868;2023-08-01T10:54:19;5.37;;;2.50;;
69910;SDS011;63555;49.920;17.868;2023-08-01T10:59:23;7.20;;;3.30;;
69910;SDS011;63555;49.920;17.868;2023-08-01T11:04:24;4.43;;;2.33;;
69910;SDS011;63555;49.920;17.868;2023-08-01T11:09:25;4.43;;;2.23;;
69910;SDS011;63555;49.920;17.868;2023-08-01T11:14:27;4.35;;;2.00;;
69910;SDS011;63555;49.920;17.868;2023-08-01T11:19:28;5.87;;;2.00;;
69910;SDS011;63555;49.920;17.868;2023-08-01T11:24:29;4.75;;;2.30;;
69910;SDS011;63555;49.920;17.868;2023-08-01T11:29:30;4.27;;;2.07;;
69910;SDS011;63555;49.920;17.868;2023-08-01T11:34:39;4.83;;;2.17;;
69910;SDS011;63555;49.920;17.868;2023-08-01T11:39:44;4.82;;;2.00;;
69910;SDS011;63555;49.920;17.868;2023-08-01T11:44:46;6.50;;;2.28;;
69910;SDS011;63555;49.920;17.868;2023-08-01T11:49:47;3.53;;;1.87;;
69910;SDS011;63555;49.920;17.868;2023-08-01T11:54:48;3.95;;;1.50;;
69910;SDS011;63555;49.920;17.868;2023-08-01T11:59:54;5.33;;;1.90;;
69910;SDS011;63555;49.920;17.868;2023-08-01T12:04:55;3.63;;;1.63;;
69910;SDS011;63555;49.920;17.868;2023-08-01T12:09:56;4.00;;;2.07;;
69910;SDS011;63555;49.920;17.868;2023-08-01T12:15:00;4.93;;;1.80;;
69910;SDS011;63555;49.920;17.868;2023-08-01T12:20:01;4.27;;;1.70;;
69910;SDS011;63555;49.920;17.868;2023-08-01T12:25:02;3.40;;;1.65;;
69910;SDS011;63555;49.920;17.868;2023-08-01T12:30:03;3.23;;;1.50;;
69910;SDS011;63555;49.920;17.868;2023-08-01T12:35:04;4.40;;;1.48;;
69910;SDS011;63555;49.920;17.868;2023-08-01T12:40:04;3.92;;;1.80;;
69910;SDS011;63555;49.920;17.868;2023-08-01T12:45:06;3.88;;;1.50;;
69910;SDS011;63555;49.920;17.868;2023-08-01T12:50:07;4.40;;;1.40;;
69910;SDS011;63555;49.920;17.868;2023-08-01T12:55:08;3.83;;;1.83;;
69910;SDS011;63555;49.920;17.868;2023-08-01T13:00:08;3.80;;;1.30;;
69910;SDS011;63555;49.920;17.868;2023-08-01T13:05:10;3.70;;;1.50;;
69910;SDS011;63555;49.920;17.868;2023-08-01T13:10:11;3.83;;;1.30;;
69910;SDS011;63555;49.920;17.868;2023-08-01T13:15:11;3.75;;;1.55;;
69910;SDS011;63555;49.920;17.868;2023-08-01T13:20:11;3.73;;;1.30;;
69910;SDS011;63555;49.920;17.868;2023-08-01T13:25:15;3.27;;;1.30;;
69910;SDS011;63555;49.920;17.868;2023-08-01T13:30:19;4.63;;;1.50;;
69910;SDS011;63555;49.920;17.868;2023-08-01T13:35:20;2.90;;;1.43;;
69910;SDS011;63555;49.920;17.868;2023-08-01T13:40:20;3.80;;;1.67;;
69910;SDS011;63555;49.920;17.868;2023-08-01T13:45:20;4.30;;;1.83;;
69910;SDS011;63555;49.920;17.868;2023-08-01T13:50:21;4.77;;;1.57;;
69910;SDS011;63555;49.920;17.868;2023-08-01T13:55:21;5.30;;;1.80;;
69910;SDS011;63555;49.920;17.868;2023-08-01T14:00:22;5.60;;;2.17;;
69910;SDS011;63555;49.920;17.868;2023-08-01T14:05:25;4.93;;;2.00;;
69910;SDS011;63555;49.920;17.868;2023-08-01T14:10:26;6.43;;;1.87;;
69910;SDS011;63555;49.920;17.868;2023-08-01T14:15:27;4.87;;;2.13;;
69910;SDS011;63555;49.920;17.868;2023-08-01T14:20:27;5.37;;;2.40;;
69910;SDS011;63555;49.920;17.868;2023-08-01T14:25:27;4.70;;;1.93;;
69910;SDS011;63555;49.920;17.868;2023-08-01T14:30:28;4.17;;;1.80;;
69910;SDS011;63555;49.920;17.868;2023-08-01T14:35:29;4.30;;;1.70;;
69910;SDS011;63555;49.920;17.868;2023-08-01T14:40:30;4.80;;;2.33;;
69910;SDS011;63555;49.920;17.868;2023-08-01T14:45:30;3.25;;;1.50;;
69910;SDS011;63555;49.920;17.868;2023-08-01T14:50:31;3.80;;;1.73;;
69910;SDS011;63555;49.920;17.868;2023-08-01T14:55:31;5.10;;;1.50;;
69910;SDS011;63555;49.920;17.868;2023-08-01T15:00:35;5.38;;;1.80;;
69910;SDS011;63555;49.920;17.868;2023-08-01T15:05:36;4.70;;;1.77;;
69910;SDS011;63555;49.920;17.868;2023-08-01T15:10:36;3.97;;;1.80;;
69910;SDS011;63555;49.920;17.868;2023-08-01T15:15:37;4.93;;;2.03;;
69910;SDS011;63555;49.920;17.868;2023-08-01T15:20:38;3.77;;;1.60;;
69910;SDS011;63555;49.920;17.868;2023-08-01T15:25:40;3.55;;;1.48;;
69910;SDS011;63555;49.920;17.868;2023-08-01T15:30:43;5.60;;;1.98;;
69910;SDS011;63555;49.920;17.868;2023-08-01T15:35:43;3.80;;;1.70;;
69910;SDS011;63555;49.920;17.868;2023-08-01T15:40:43;4.78;;;1.80;;
69910;SDS011;63555;49.920;17.868;2023-08-01T15:45:44;3.47;;;1.70;;
69910;SDS011;63555;49.920;17.868;2023-08-01T15:50:44;4.87;;;1.90;;
69910;SDS011;63555;49.920;17.868;2023-08-01T15:55:46;4.90;;;1.97;;
69910;SDS011;63555;49.920;17.868;2023-08-01T16:00:53;4.28;;;1.80;;
69910;SDS011;63555;49.920;17.868;2023-08-01T16:05:55;6.03;;;1.77;;
69910;SDS011;63555;49.920;17.868;2023-08-01T16:10:56;5.10;;;2.08;;
69910;SDS011;63555;49.920;17.868;2023-08-01T16:15:57;4.50;;;2.53;;
69910;SDS011;63555;49.920;17.868;2023-08-01T16:20:57;5.57;;;2.23;;
69910;SDS011;63555;49.920;17.868;2023-08-01T16:25:58;6.63;;;1.90;;
69910;SDS011;63555;49.920;17.868;2023-08-01T16:30:59;5.70;;;2.33;;
69910;SDS011;63555;49.920;17.868;2023-08-01T16:35:59;5.60;;;2.23;;
69910;SDS011;63555;49.920;17.868;2023-08-01T16:41:00;4.93;;;2.20;;
69910;SDS011;63555;49.920;17.868;2023-08-01T16:46:04;6.53;;;2.30;;
69910;SDS011;63555;49.920;17.868;2023-08-01T16:51:04;5.13;;;2.50;;
69910;SDS011;63555;49.920;17.868;2023-08-01T16:56:05;6.00;;;2.20;;
69910;SDS011;63555;49.920;17.868;2023-08-01T17:01:05;5.03;;;2.20;;
69910;SDS011;63555;49.920;17.868;2023-08-01T17:06:08;5.40;;;2.43;;
69910;SDS011;63555;49.920;17.868;2023-08-01T17:11:09;4.72;;;2.42;;
69910;SDS011;63555;49.920;17.868;2023-08-01T17:16:10;4.43;;;2.27;;
69910;SDS011;63555;49.920;17.868;2023-08-01T17:21:10;10.43;;;2.63;;
69910;SDS011;63555;49.920;17.868;2023-08-01T17:26:11;6.73;;;3.00;;
69910;SDS011;63555;49.920;17.868;2023-08-01T17:31:11;5.63;;;2.70;;
69910;SDS011;63555;49.920;17.868;2023-08-01T17:36:15;7.20;;;2.60;;
69910;SDS011;63555;49.920;17.868;2023-08-01T17:41:23;5.23;;;2.20;;
69910;SDS011;63555;49.920;17.868;2023-08-01T17:46:24;4.72;;;2.15;;
69910;SDS011;63555;49.920;17.868;2023-08-01T17:51:25;5.63;;;2.73;;
69910;SDS011;63555;49.920;17.868;2023-08-01T17:56:26;5.63;;;2.33;;
69910;SDS011;63555;49.920;17.868;2023-08-01T18:01:26;4.67;;;2.47;;
69910;SDS011;63555;49.920;17.868;2023-08-01T18:06:28;4.88;;;2.38;;
69910;SDS011;63555;49.920;17.868;2023-08-01T18:11:29;6.90;;;2.93;;
69910;SDS011;63555;49.920;17.868;2023-08-01T18:16:29;6.30;;;2.80;;
69910;SDS011;63555;49.920;17.868;2023-08-01T18:21:30;4.78;;;2.38;;
69910;SDS011;63555;49.920;17.868;2023-08-01T18:26:30;8.20;;;2.20;;
69910;SDS011;63555;49.920;17.868;2023-08-01T18:31:31;4.97;;;2.30;;
69910;SDS011;63555;49.920;17.868;2023-08-01T18:36:31;4.80;;;2.00;;
69910;SDS011;63555;49.920;17.868;2023-08-01T18:41:32;4.93;;;2.27;;
69910;SDS011;63555;49.920;17.868;2023-08-01T18:46:34;5.75;;;2.00;;
69910;SDS011;63555;49.920;17.868;2023-08-01T18:51:34;5.33;;;2.60;;
69910;SDS011;63555;49.920;17.868;2023-08-01T18:56:35;5.28;;;2.10;;
69910;SDS011;63555;49.920;17.868;2023-08-01T19:01:35;5.60;;;3.03;;
69910;SDS011;63555;49.920;17.868;2023-08-01T19:06:36;4.60;;;2.30;;
69910;SDS011;63555;49.920;17.868;2023-08-01T19:11:36;4.27;;;2.20;;
69910;SDS011;63555;49.920;17.868;2023-08-01T19:16:36;6.53;;;2.50;;
69910;SDS011;63555;49.920;17.868;2023-08-01T19:21:37;5.47;;;2.20;;
69910;SDS011;63555;49.920;17.868;2023-08-01T19:26:37;4.80;;;2.33;;
69910;SDS011;63555;49.920;17.868;2023-08-01T19:31:38;5.50;;;2.90;;
69910;SDS011;63555;49.920;17.868;2023-08-01T19:36:38;6.77;;;3.00;;
69910;SDS011;63555;49.920;17.868;2023-08-01T19:41:39;4.87;;;2.57;;
69910;SDS011;63555;49.920;17.868;2023-08-01T19:46:39;5.20;;;2.60;;
69910;SDS011;63555;49.920;17.868;2023-08-01T19:51:40;4.23;;;1.90;;
69910;SDS011;63555;49.920;17.868;2023-08-01T19:56:40;5.77;;;2.93;;
69910;SDS011;63555;49.920;17.868;2023-08-01T20:01:41;6.87;;;2.43;;
69910;SDS011;63555;49.920;17.868;2023-08-01T20:06:42;5.90;;;2.58;;
69910;SDS011;63555;49.920;17.868;2023-08-01T20:11:42;6.87;;;2.70;;
69910;SDS011;63555;49.920;17.868;2023-08-01T20:16:42;5.53;;;2.60;;
69910;SDS011;63555;49.920;17.868;2023-08-01T20:21:43;5.50;;;2.80;;
69910;SDS011;63555;49.920;17.868;2023-08-01T20:26:43;6.87;;;2.80;;
69910;SDS011;63555;49.920;17.868;2023-08-01T20:31:44;5.60;;;2.50;;
69910;SDS011;63555;49.920;17.868;2023-08-01T20:36:45;7.67;;;3.57;;
69910;SDS011;63555;49.920;17.868;2023-08-01T20:41:45;5.53;;;2.77;;
69910;SDS011;63555;49.920;17.868;2023-08-01T20:46:45;7.10;;;2.83;;
69910;SDS011;63555;49.920;17.868;2023-08-01T20:51:46;5.00;;;2.60;;
69910;SDS011;63555;49.920;17.868;2023-08-01T20:56:46;4.40;;;2.63;;
69910;SDS011;63555;49.920;17.868;2023-08-01T21:01:46;5.20;;;2.70;;
69910;SDS011;63555;49.920;17.868;2023-08-01T21:06:47;5.83;;;2.60;;
69910;SDS011;63555;49.920;17.868;2023-08-01T21:11:47;7.00;;;2.90;;
69910;SDS011;63555;49.920;17.868;2023-08-01T21:16:48;6.00;;;2.73;;
69910;SDS011;63555;49.920;17.868;2023-08-01T21:21:48;4.70;;;2.60;;
69910;SDS011;63555;49.920;17.868;2023-08-01T21:26:49;4.97;;;2.53;;
69910;SDS011;63555;49.920;17.868;2023-08-01T21:31:49;5.87;;;2.37;;
69910;SDS011;63555;49.920;17.868;2023-08-01T21:36:49;5.80;;;2.60;;
69910;SDS011;63555;49.920;17.868;2023-08-01T21:41:50;4.37;;;2.07;;
69910;SDS011;63555;49.920;17.868;2023-08-01T21:46:50;6.00;;;2.60;;
69910;SDS011;63555;49.920;17.868;2023-08-01T21:51:51;5.00;;;2.63;;
69910;SDS011;63555;49.920;17.868;2023-08-01T21:56:51;5.83;;;2.80;;
69910;SDS011;63555;49.920;17.868;2023-08-01T22:01:52;5.53;;;2.30;;
69910;SDS011;63555;49.920;17.868;2023-08-01T22:06:52;7.13;;;2.70;;
69910;SDS011;63555;49.920;17.868;2023-08-01T22:11:52;5.70;;;3.07;;
69910;SDS011;63555;49.920;17.868;2023-08-01T22:16:53;4.43;;;2.50;;
69910;SDS011;63555;49.920;17.868;2023-08-01T22:21:53;4.20;;;2.40;;
69910;SDS011;63555;49.920;17.868;2023-08-01T22:26:53;6.37;;;2.80;;
69910;SDS011;63555;49.920;17.868;2023-08-01T22:31:54;7.30;;;3.27;;
69910;SDS011;63555;49.920;17.868;2023-08-01T22:36:55;8.38;;;2.97;;
69910;SDS011;63555;49.920;17.868;2023-08-01T22:41:55;6.00;;;2.63;;
69910;SDS011;63555;49.920;17.868;2023-08-01T22:46:56;5.40;;;2.80;;
69910;SDS011;63555;49.920;17.868;2023-08-01T22:51:56;5.50;;;2.93;;
69910;SDS011;63555;49.920;17.868;2023-08-01T22:56:56;5.40;;;2.83;;
69910;SDS011;63555;49.920;17.868;2023-08-01T23:01:57;6.17;;;3.10;;
69910;SDS011;63555;49.920;17.868;2023-08-01T23:06:57;7.63;;;3.43;;
69910;SDS011;63555;49.920;17.868;2023-08-01T23:11:58;6.37;;;3.27;;
69910;SDS011;63555;49.920;17.868;2023-08-01T23:16:58;5.67;;;2.97;;
69910;SDS011;63555;49.920;17.868;2023-08-01T23:21:58;6.33;;;2.90;;
69910;SDS011;63555;49.920;17.868;2023-08-01T23:26:59;5.87;;;3.20;;
69910;SDS011;63555;49.920;17.868;2023-08-01T23:31:59;6.37;;;2.77;;
69910;SDS011;63555;49.920;17.868;2023-08-01T23:36:59;5.70;;;2.53;;
69910;SDS011;63555;49.920;17.868;2023-08-01T23:42:00;5.30;;;3.10;;
69910;SDS011;63555;49.920;17.868;2023-08-01T23:47:00;6.07;;;2.37;;
69910;SDS011;63555;49.920;17.868;2023-08-01T23:52:01;5.90;;;2.50;;
69910;SDS011;63555;49.920;17.868;2023-08-01T23:57:01;5.00;;;2.47;;
